Uniontown, WA (99179)

3:26 AM PDT on September 01, 2015 (GMT -0700)
Town of Colton | | Change Station
CLOSE
Current Station
Personal Weather Station
Location: Colton, WA
Elevation: 2579 ft
Nearby Weather Stations

Elev 2579 ft 46.57 °N, 117.12 °W | Updated 53 seconds ago

Clear
Clear
59.2 °F
Feels Like 59.2 °F
N
3.0
Wind Variable Wind from WNW
Gusts 6.0 mph

Today
High -- | Low -- °F
--% Chance of Precip.
Yesterday
High -- | Low -- °F
Precip. -- in
6:08 AM 7:27 PM
Waning Gibbous, 90% visible
Pressure 29.87 in
Visibility 10.0 miles
Clouds Clear
Dew Point 44 °F
Humidity 56%
Rainfall 0.00 in
Snow Depth Not available.
UV 0 out of 12
Pollen 7.90 out of 12
Air Quality Not available.
Flu Activity Not available.
METAR KLWS 010956Z AUTO 14005KT 10SM CLR 14/06 A2989 RMK AO2 SLP114 T01440061
Pressure 29.87 in
Visibility 10.0 miles
Clouds Clear
Dew Point 44 °F
Humidity 56%
Rainfall 0.00 in
Snow Depth Not available.
UV 0 out of 12
Pollen 7.90 out of 12
Air Quality Not available.
Flu Activity Not available.
METAR KLWS 010956Z AUTO 14005KT 10SM CLR 14/06 A2989 RMK AO2 SLP114 T01440061

10-Day Weather Forecast

×

Almanac

Astronomy

Sep. 01, 2015 Rise Set
Actual Time
Civil Twilight
Nautical Twilight
Astronomical Twilight
Moon
Length of Visible Light
Length of Day
Tomorrow will be .
, % of the Moon is Illuminated

Today's Extremes

State Highs State Lows

Community

WunderPhotos

Upload Photos

1,851,501 photos uploaded!

WunderBlogs® & News

Nearby

Air Quality

  Air Quality AQ Index Pollutant
Not available.

Snow Depth

Station Depth Elevation

Earthquake Activity

City Distance Mag. Time & Date
Minimum magnitude displayed is 2.5.

Coastal Water Temperatures

Place Temperature

Stations

Nearby Weather Stations

Station Location Temp. Windchill Dew Point Humidity Wind Precip. Elev Updated Type